sensor_id;sensor_type;location;lat;lon;timestamp;P1;durP1;ratioP1;P2;durP2;ratioP2
22429;SDS011;11382;48.086;11.632;2023-03-29T00:00:30;2.60;;;1.48;;
22429;SDS011;11382;48.086;11.632;2023-03-29T00:03:02;2.70;;;1.77;;
22429;SDS011;11382;48.086;11.632;2023-03-29T00:05:30;2.60;;;2.20;;
22429;SDS011;11382;48.086;11.632;2023-03-29T00:08:00;3.30;;;1.80;;
22429;SDS011;11382;48.086;11.632;2023-03-29T00:10:29;2.15;;;1.50;;
22429;SDS011;11382;48.086;11.632;2023-03-29T00:12:58;2.25;;;1.50;;
22429;SDS011;11382;48.086;11.632;2023-03-29T00:15:27;2.80;;;1.70;;
22429;SDS011;11382;48.086;11.632;2023-03-29T00:17:55;2.80;;;1.40;;
22429;SDS011;11382;48.086;11.632;2023-03-29T00:20:24;2.67;;;1.80;;
22429;SDS011;11382;48.086;11.632;2023-03-29T00:22:54;2.90;;;1.70;;
22429;SDS011;11382;48.086;11.632;2023-03-29T00:25:22;1.95;;;1.45;;
22429;SDS011;11382;48.086;11.632;2023-03-29T00:27:50;2.15;;;1.40;;
22429;SDS011;11382;48.086;11.632;2023-03-29T00:30:18;3.90;;;1.70;;
22429;SDS011;11382;48.086;11.632;2023-03-29T00:32:46;2.72;;;1.60;;
22429;SDS011;11382;48.086;11.632;2023-03-29T00:35:14;2.33;;;1.20;;
22429;SDS011;11382;48.086;11.632;2023-03-29T00:37:44;1.83;;;1.60;;
22429;SDS011;11382;48.086;11.632;2023-03-29T00:42:44;1.98;;;1.23;;
22429;SDS011;11382;48.086;11.632;2023-03-29T00:45:18;2.42;;;0.80;;
22429;SDS011;11382;48.086;11.632;2023-03-29T00:47:49;3.20;;;1.08;;
22429;SDS011;11382;48.086;11.632;2023-03-29T00:50:21;1.42;;;1.13;;
22429;SDS011;11382;48.086;11.632;2023-03-29T00:52:57;1.92;;;1.30;;
22429;SDS011;11382;48.086;11.632;2023-03-29T00:55:30;1.52;;;1.10;;
22429;SDS011;11382;48.086;11.632;2023-03-29T00:58:01;2.60;;;1.10;;
22429;SDS011;11382;48.086;11.632;2023-03-29T01:00:33;2.72;;;1.20;;
22429;SDS011;11382;48.086;11.632;2023-03-29T01:03:05;3.50;;;1.43;;
22429;SDS011;11382;48.086;11.632;2023-03-29T01:05:39;2.17;;;1.48;;
22429;SDS011;11382;48.086;11.632;2023-03-29T01:08:13;2.05;;;1.35;;
22429;SDS011;11382;48.086;11.632;2023-03-29T01:10:46;1.92;;;1.20;;
22429;SDS011;11382;48.086;11.632;2023-03-29T01:13:18;2.23;;;1.17;;
22429;SDS011;11382;48.086;11.632;2023-03-29T01:15:52;1.77;;;1.45;;
22429;SDS011;11382;48.086;11.632;2023-03-29T01:18:22;2.20;;;1.30;;
22429;SDS011;11382;48.086;11.632;2023-03-29T01:21:07;3.08;;;1.27;;
22429;SDS011;11382;48.086;11.632;2023-03-29T01:23:50;1.80;;;1.20;;
22429;SDS011;11382;48.086;11.632;2023-03-29T01:26:35;1.38;;;1.27;;
22429;SDS011;11382;48.086;11.632;2023-03-29T01:29:20;1.58;;;1.20;;
22429;SDS011;11382;48.086;11.632;2023-03-29T01:34:23;1.10;;;1.00;;
22429;SDS011;11382;48.086;11.632;2023-03-29T01:36:57;2.15;;;1.00;;
22429;SDS011;11382;48.086;11.632;2023-03-29T01:39:29;2.50;;;1.40;;
22429;SDS011;11382;48.086;11.632;2023-03-29T01:42:03;1.75;;;1.27;;
22429;SDS011;11382;48.086;11.632;2023-03-29T01:44:39;2.55;;;1.25;;
22429;SDS011;11382;48.086;11.632;2023-03-29T01:47:18;2.67;;;1.17;;
22429;SDS011;11382;48.086;11.632;2023-03-29T01:49:52;1.52;;;1.13;;
22429;SDS011;11382;48.086;11.632;2023-03-29T01:52:30;1.90;;;1.17;;
22429;SDS011;11382;48.086;11.632;2023-03-29T01:55:04;1.73;;;1.45;;
22429;SDS011;11382;48.086;11.632;2023-03-29T01:57:35;2.55;;;1.00;;
22429;SDS011;11382;48.086;11.632;2023-03-29T02:00:11;0.98;;;0.85;;
22429;SDS011;11382;48.086;11.632;2023-03-29T02:02:43;1.48;;;1.30;;
22429;SDS011;11382;48.086;11.632;2023-03-29T02:05:13;1.35;;;1.10;;
22429;SDS011;11382;48.086;11.632;2023-03-29T02:07:43;1.67;;;1.17;;
22429;SDS011;11382;48.086;11.632;2023-03-29T02:10:12;1.80;;;1.02;;
22429;SDS011;11382;48.086;11.632;2023-03-29T02:12:42;1.60;;;1.10;;
22429;SDS011;11382;48.086;11.632;2023-03-29T02:15:12;1.80;;;1.15;;
22429;SDS011;11382;48.086;11.632;2023-03-29T02:17:41;3.20;;;1.17;;
22429;SDS011;11382;48.086;11.632;2023-03-29T02:20:10;4.20;;;1.10;;
22429;SDS011;11382;48.086;11.632;2023-03-29T02:22:46;1.30;;;1.10;;
22429;SDS011;11382;48.086;11.632;2023-03-29T02:25:21;1.88;;;1.38;;
22429;SDS011;11382;48.086;11.632;2023-03-29T02:27:49;3.35;;;1.15;;
22429;SDS011;11382;48.086;11.632;2023-03-29T02:30:19;1.20;;;1.10;;
22429;SDS011;11382;48.086;11.632;2023-03-29T02:32:51;1.40;;;1.10;;
22429;SDS011;11382;48.086;11.632;2023-03-29T02:35:26;2.38;;;1.10;;
22429;SDS011;11382;48.086;11.632;2023-03-29T02:38:01;2.22;;;1.10;;
22429;SDS011;11382;48.086;11.632;2023-03-29T02:40:31;1.52;;;1.27;;
22429;SDS011;11382;48.086;11.632;2023-03-29T02:43:02;2.33;;;1.40;;
22429;SDS011;11382;48.086;11.632;2023-03-29T02:45:33;2.35;;;1.30;;
22429;SDS011;11382;48.086;11.632;2023-03-29T02:48:04;3.03;;;1.77;;
22429;SDS011;11382;48.086;11.632;2023-03-29T02:50:36;3.92;;;1.60;;
22429;SDS011;11382;48.086;11.632;2023-03-29T02:53:07;4.20;;;1.75;;
22429;SDS011;11382;48.086;11.632;2023-03-29T02:55:40;3.22;;;1.20;;
22429;SDS011;11382;48.086;11.632;2023-03-29T02:58:12;2.47;;;1.60;;
22429;SDS011;11382;48.086;11.632;2023-03-29T03:00:42;1.50;;;1.40;;
22429;SDS011;11382;48.086;11.632;2023-03-29T03:03:13;3.55;;;1.13;;
22429;SDS011;11382;48.086;11.632;2023-03-29T03:05:45;1.45;;;1.00;;
22429;SDS011;11382;48.086;11.632;2023-03-29T03:08:13;1.75;;;1.10;;
22429;SDS011;11382;48.086;11.632;2023-03-29T03:10:41;1.27;;;1.17;;
22429;SDS011;11382;48.086;11.632;2023-03-29T03:13:09;1.35;;;1.25;;
22429;SDS011;11382;48.086;11.632;2023-03-29T03:15:38;2.60;;;1.40;;
22429;SDS011;11382;48.086;11.632;2023-03-29T03:18:09;2.15;;;1.20;;
22429;SDS011;11382;48.086;11.632;2023-03-29T03:20:37;3.35;;;1.45;;
22429;SDS011;11382;48.086;11.632;2023-03-29T03:23:06;3.45;;;1.52;;
22429;SDS011;11382;48.086;11.632;2023-03-29T03:25:34;2.05;;;1.40;;
22429;SDS011;11382;48.086;11.632;2023-03-29T03:28:03;3.60;;;1.65;;
22429;SDS011;11382;48.086;11.632;2023-03-29T03:30:31;2.10;;;1.23;;
22429;SDS011;11382;48.086;11.632;2023-03-29T03:33:24;1.90;;;1.30;;
22429;SDS011;11382;48.086;11.632;2023-03-29T03:36:08;1.80;;;1.20;;
22429;SDS011;11382;48.086;11.632;2023-03-29T03:38:40;5.22;;;1.38;;
22429;SDS011;11382;48.086;11.632;2023-03-29T03:41:09;5.13;;;1.48;;
22429;SDS011;11382;48.086;11.632;2023-03-29T03:43:37;2.00;;;1.50;;
22429;SDS011;11382;48.086;11.632;2023-03-29T03:46:07;3.22;;;1.60;;
22429;SDS011;11382;48.086;11.632;2023-03-29T03:48:37;2.40;;;1.40;;
22429;SDS011;11382;48.086;11.632;2023-03-29T03:51:21;2.97;;;1.75;;
22429;SDS011;11382;48.086;11.632;2023-03-29T03:53:50;2.08;;;1.70;;
22429;SDS011;11382;48.086;11.632;2023-03-29T03:56:32;3.58;;;1.80;;
22429;SDS011;11382;48.086;11.632;2023-03-29T03:59:14;2.38;;;1.20;;
22429;SDS011;11382;48.086;11.632;2023-03-29T04:01:54;1.88;;;1.58;;
22429;SDS011;11382;48.086;11.632;2023-03-29T04:04:25;6.20;;;1.98;;
22429;SDS011;11382;48.086;11.632;2023-03-29T04:07:10;4.15;;;1.70;;
22429;SDS011;11382;48.086;11.632;2023-03-29T04:09:58;2.38;;;1.25;;
22429;SDS011;11382;48.086;11.632;2023-03-29T04:12:44;2.08;;;1.52;;
22429;SDS011;11382;48.086;11.632;2023-03-29T04:15:12;4.30;;;1.30;;
22429;SDS011;11382;48.086;11.632;2023-03-29T04:17:49;1.95;;;1.38;;
22429;SDS011;11382;48.086;11.632;2023-03-29T04:20:30;1.92;;;1.40;;
22429;SDS011;11382;48.086;11.632;2023-03-29T04:22:59;4.40;;;1.38;;
22429;SDS011;11382;48.086;11.632;2023-03-29T04:25:27;1.98;;;1.40;;
22429;SDS011;11382;48.086;11.632;2023-03-29T04:28:34;3.75;;;1.40;;
22429;SDS011;11382;48.086;11.632;2023-03-29T04:31:28;1.17;;;1.00;;
22429;SDS011;11382;48.086;11.632;2023-03-29T04:34:23;1.67;;;1.20;;
22429;SDS011;11382;48.086;11.632;2023-03-29T04:36:54;1.33;;;1.23;;
22429;SDS011;11382;48.086;11.632;2023-03-29T04:39:24;2.22;;;1.30;;
22429;SDS011;11382;48.086;11.632;2023-03-29T04:41:58;1.17;;;0.90;;
22429;SDS011;11382;48.086;11.632;2023-03-29T04:44:30;2.33;;;1.00;;
22429;SDS011;11382;48.086;11.632;2023-03-29T04:47:01;1.10;;;1.00;;
22429;SDS011;11382;48.086;11.632;2023-03-29T04:49:29;1.95;;;1.20;;
22429;SDS011;11382;48.086;11.632;2023-03-29T04:51:59;1.17;;;0.80;;
22429;SDS011;11382;48.086;11.632;2023-03-29T04:54:29;1.13;;;0.70;;
22429;SDS011;11382;48.086;11.632;2023-03-29T04:57:19;1.50;;;0.90;;
22429;SDS011;11382;48.086;11.632;2023-03-29T04:59:54;1.55;;;1.02;;
22429;SDS011;11382;48.086;11.632;2023-03-29T05:02:41;1.55;;;0.77;;
22429;SDS011;11382;48.086;11.632;2023-03-29T05:05:11;9.38;;;1.40;;
22429;SDS011;11382;48.086;11.632;2023-03-29T05:07:42;3.53;;;1.55;;
22429;SDS011;11382;48.086;11.632;2023-03-29T05:10:11;1.38;;;1.00;;
22429;SDS011;11382;48.086;11.632;2023-03-29T05:12:40;2.20;;;0.80;;
22429;SDS011;11382;48.086;11.632;2023-03-29T05:15:08;1.67;;;1.00;;
22429;SDS011;11382;48.086;11.632;2023-03-29T05:17:37;0.90;;;0.80;;
22429;SDS011;11382;48.086;11.632;2023-03-29T05:20:09;2.75;;;1.00;;
22429;SDS011;11382;48.086;11.632;2023-03-29T05:22:42;2.35;;;0.80;;
22429;SDS011;11382;48.086;11.632;2023-03-29T05:25:19;3.40;;;1.05;;
22429;SDS011;11382;48.086;11.632;2023-03-29T05:27:47;2.13;;;0.93;;
22429;SDS011;11382;48.086;11.632;2023-03-29T05:30:15;1.50;;;0.80;;
22429;SDS011;11382;48.086;11.632;2023-03-29T05:33:03;3.30;;;0.70;;
22429;SDS011;11382;48.086;11.632;2023-03-29T05:35:33;1.52;;;0.85;;
22429;SDS011;11382;48.086;11.632;2023-03-29T05:38:06;1.92;;;0.90;;
22429;SDS011;11382;48.086;11.632;2023-03-29T05:40:34;1.20;;;0.75;;
22429;SDS011;11382;48.086;11.632;2023-03-29T05:43:17;1.85;;;0.80;;
22429;SDS011;11382;48.086;11.632;2023-03-29T05:45:45;1.40;;;0.63;;
22429;SDS011;11382;48.086;11.632;2023-03-29T05:48:14;2.53;;;0.80;;
22429;SDS011;11382;48.086;11.632;2023-03-29T05:50:45;1.88;;;0.95;;
22429;SDS011;11382;48.086;11.632;2023-03-29T05:53:18;1.20;;;0.98;;
22429;SDS011;11382;48.086;11.632;2023-03-29T05:55:47;2.45;;;0.70;;
22429;SDS011;11382;48.086;11.632;2023-03-29T05:58:18;1.88;;;1.13;;
22429;SDS011;11382;48.086;11.632;2023-03-29T06:00:47;2.05;;;1.00;;
22429;SDS011;11382;48.086;11.632;2023-03-29T06:03:44;1.70;;;0.68;;
22429;SDS011;11382;48.086;11.632;2023-03-29T06:06:12;1.35;;;0.70;;
22429;SDS011;11382;48.086;11.632;2023-03-29T06:08:43;3.92;;;0.80;;
22429;SDS011;11382;48.086;11.632;2023-03-29T06:11:17;3.20;;;0.75;;
22429;SDS011;11382;48.086;11.632;2023-03-29T06:14:06;1.67;;;0.90;;
22429;SDS011;11382;48.086;11.632;2023-03-29T06:16:40;0.98;;;0.55;;
22429;SDS011;11382;48.086;11.632;2023-03-29T06:19:09;1.55;;;0.50;;
22429;SDS011;11382;48.086;11.632;2023-03-29T06:21:38;1.58;;;0.63;;
22429;SDS011;11382;48.086;11.632;2023-03-29T06:24:11;1.05;;;0.80;;
22429;SDS011;11382;48.086;11.632;2023-03-29T06:26:44;2.35;;;0.60;;
22429;SDS011;11382;48.086;11.632;2023-03-29T06:29:13;1.20;;;0.80;;
22429;SDS011;11382;48.086;11.632;2023-03-29T06:31:44;1.77;;;0.77;;
22429;SDS011;11382;48.086;11.632;2023-03-29T06:34:33;1.20;;;0.82;;
22429;SDS011;11382;48.086;11.632;2023-03-29T06:37:32;1.05;;;0.68;;
22429;SDS011;11382;48.086;11.632;2023-03-29T06:40:12;0.77;;;0.68;;
22429;SDS011;11382;48.086;11.632;2023-03-29T06:42:43;2.13;;;1.02;;
22429;SDS011;11382;48.086;11.632;2023-03-29T06:45:33;3.75;;;0.80;;
22429;SDS011;11382;48.086;11.632;2023-03-29T06:48:07;0.88;;;0.70;;
22429;SDS011;11382;48.086;11.632;2023-03-29T06:50:37;2.88;;;1.20;;
22429;SDS011;11382;48.086;11.632;2023-03-29T06:53:09;3.05;;;1.00;;
22429;SDS011;11382;48.086;11.632;2023-03-29T06:55:41;0.82;;;0.57;;
22429;SDS011;11382;48.086;11.632;2023-03-29T06:58:29;0.60;;;0.57;;
22429;SDS011;11382;48.086;11.632;2023-03-29T07:01:04;2.25;;;0.60;;
22429;SDS011;11382;48.086;11.632;2023-03-29T07:03:44;2.08;;;0.80;;
22429;SDS011;11382;48.086;11.632;2023-03-29T07:06:17;1.52;;;0.80;;
22429;SDS011;11382;48.086;11.632;2023-03-29T07:08:46;1.15;;;0.80;;
22429;SDS011;11382;48.086;11.632;2023-03-29T07:11:32;1.65;;;0.75;;
22429;SDS011;11382;48.086;11.632;2023-03-29T07:14:13;2.08;;;0.70;;
22429;SDS011;11382;48.086;11.632;2023-03-29T07:16:43;4.43;;;0.85;;
22429;SDS011;11382;48.086;11.632;2023-03-29T07:19:17;2.28;;;0.50;;
22429;SDS011;11382;48.086;11.632;2023-03-29T07:21:47;3.42;;;0.60;;
22429;SDS011;11382;48.086;11.632;2023-03-29T07:24:16;1.13;;;0.70;;
22429;SDS011;11382;48.086;11.632;2023-03-29T07:26:49;1.85;;;0.70;;
22429;SDS011;11382;48.086;11.632;2023-03-29T07:29:30;2.75;;;0.80;;
22429;SDS011;11382;48.086;11.632;2023-03-29T07:31:58;2.42;;;1.13;;
22429;SDS011;11382;48.086;11.632;2023-03-29T07:34:46;1.83;;;0.82;;
22429;SDS011;11382;48.086;11.632;2023-03-29T07:37:25;1.55;;;0.90;;
22429;SDS011;11382;48.086;11.632;2023-03-29T07:39:56;1.40;;;0.98;;
22429;SDS011;11382;48.086;11.632;2023-03-29T07:42:58;0.60;;;0.60;;
22429;SDS011;11382;48.086;11.632;2023-03-29T07:45:30;1.70;;;0.70;;
22429;SDS011;11382;48.086;11.632;2023-03-29T07:48:06;1.90;;;0.95;;
22429;SDS011;11382;48.086;11.632;2023-03-29T07:50:55;2.33;;;0.82;;
22429;SDS011;11382;48.086;11.632;2023-03-29T07:53:31;1.50;;;0.80;;
22429;SDS011;11382;48.086;11.632;2023-03-29T07:56:03;2.53;;;1.00;;
22429;SDS011;11382;48.086;11.632;2023-03-29T07:58:53;0.80;;;0.70;;
22429;SDS011;11382;48.086;11.632;2023-03-29T08:01:22;2.22;;;0.70;;
22429;SDS011;11382;48.086;11.632;2023-03-29T08:04:09;1.95;;;0.73;;
22429;SDS011;11382;48.086;11.632;2023-03-29T08:06:58;2.63;;;1.02;;
22429;SDS011;11382;48.086;11.632;2023-03-29T08:09:45;1.48;;;1.00;;
22429;SDS011;11382;48.086;11.632;2023-03-29T08:12:13;1.33;;;0.70;;
22429;SDS011;11382;48.086;11.632;2023-03-29T08:14:43;1.55;;;0.77;;
22429;SDS011;11382;48.086;11.632;2023-03-29T08:17:21;1.27;;;0.85;;
22429;SDS011;11382;48.086;11.632;2023-03-29T08:19:50;1.52;;;0.75;;
22429;SDS011;11382;48.086;11.632;2023-03-29T08:22:20;0.73;;;0.65;;
22429;SDS011;11382;48.086;11.632;2023-03-29T08:25:26;0.98;;;0.70;;
22429;SDS011;11382;48.086;11.632;2023-03-29T08:27:56;2.63;;;0.82;;
22429;SDS011;11382;48.086;11.632;2023-03-29T08:30:40;1.92;;;0.90;;
22429;SDS011;11382;48.086;11.632;2023-03-29T08:33:08;1.77;;;0.65;;
22429;SDS011;11382;48.086;11.632;2023-03-29T08:35:36;1.80;;;0.80;;
22429;SDS011;11382;48.086;11.632;2023-03-29T08:38:13;3.75;;;0.90;;
22429;SDS011;11382;48.086;11.632;2023-03-29T08:40:41;1.45;;;0.68;;
22429;SDS011;11382;48.086;11.632;2023-03-29T08:43:20;3.58;;;0.90;;
22429;SDS011;11382;48.086;11.632;2023-03-29T08:46:24;3.05;;;1.10;;
22429;SDS011;11382;48.086;11.632;2023-03-29T08:49:24;2.22;;;0.88;;
22429;SDS011;11382;48.086;11.632;2023-03-29T08:51:54;1.95;;;1.10;;
22429;SDS011;11382;48.086;11.632;2023-03-29T08:54:25;2.67;;;1.00;;
22429;SDS011;11382;48.086;11.632;2023-03-29T08:57:09;1.30;;;0.82;;
22429;SDS011;11382;48.086;11.632;2023-03-29T08:59:47;4.60;;;0.93;;
22429;SDS011;11382;48.086;11.632;2023-03-29T09:02:21;6.05;;;0.98;;
22429;SDS011;11382;48.086;11.632;2023-03-29T09:04:56;2.00;;;0.90;;
22429;SDS011;11382;48.086;11.632;2023-03-29T09:07:40;2.33;;;1.20;;
22429;SDS011;11382;48.086;11.632;2023-03-29T09:10:11;5.03;;;1.20;;
22429;SDS011;11382;48.086;11.632;2023-03-29T09:12:48;1.80;;;0.85;;
22429;SDS011;11382;48.086;11.632;2023-03-29T09:15:27;3.65;;;1.20;;
22429;SDS011;11382;48.086;11.632;2023-03-29T09:18:17;5.05;;;1.00;;
22429;SDS011;11382;48.086;11.632;2023-03-29T09:20:54;2.15;;;1.08;;
22429;SDS011;11382;48.086;11.632;2023-03-29T09:23:37;2.53;;;0.88;;
22429;SDS011;11382;48.086;11.632;2023-03-29T09:26:39;3.13;;;0.77;;
22429;SDS011;11382;48.086;11.632;2023-03-29T09:29:37;3.60;;;1.25;;
22429;SDS011;11382;48.086;11.632;2023-03-29T09:32:16;2.58;;;0.98;;
22429;SDS011;11382;48.086;11.632;2023-03-29T09:34:58;2.45;;;0.93;;
22429;SDS011;11382;48.086;11.632;2023-03-29T09:37:34;1.83;;;0.73;;
22429;SDS011;11382;48.086;11.632;2023-03-29T09:40:09;2.00;;;1.10;;
22429;SDS011;11382;48.086;11.632;2023-03-29T09:42:52;3.00;;;1.00;;
22429;SDS011;11382;48.086;11.632;2023-03-29T09:45:22;2.20;;;0.77;;
22429;SDS011;11382;48.086;11.632;2023-03-29T09:47:51;1.92;;;0.70;;
22429;SDS011;11382;48.086;11.632;2023-03-29T09:50:27;3.22;;;0.90;;
22429;SDS011;11382;48.086;11.632;2023-03-29T09:53:04;5.38;;;1.00;;
22429;SDS011;11382;48.086;11.632;2023-03-29T09:55:36;3.30;;;0.75;;
22429;SDS011;11382;48.086;11.632;2023-03-29T09:58:25;1.77;;;0.80;;
22429;SDS011;11382;48.086;11.632;2023-03-29T10:00:57;4.20;;;1.10;;
22429;SDS011;11382;48.086;11.632;2023-03-29T10:03:28;2.97;;;1.08;;
22429;SDS011;11382;48.086;11.632;2023-03-29T10:06:10;3.38;;;1.73;;
22429;SDS011;11382;48.086;11.632;2023-03-29T10:08:45;2.58;;;1.55;;
22429;SDS011;11382;48.086;11.632;2023-03-29T10:11:19;1.70;;;0.90;;
22429;SDS011;11382;48.086;11.632;2023-03-29T10:13:49;2.33;;;1.00;;
22429;SDS011;11382;48.086;11.632;2023-03-29T10:16:20;3.35;;;1.10;;
22429;SDS011;11382;48.086;11.632;2023-03-29T10:18:49;1.23;;;0.80;;
22429;SDS011;11382;48.086;11.632;2023-03-29T10:21:21;1.00;;;0.75;;
22429;SDS011;11382;48.086;11.632;2023-03-29T10:23:55;2.08;;;0.80;;
22429;SDS011;11382;48.086;11.632;2023-03-29T10:26:27;2.35;;;1.02;;
22429;SDS011;11382;48.086;11.632;2023-03-29T10:28:58;3.15;;;1.33;;
22429;SDS011;11382;48.086;11.632;2023-03-29T10:31:29;2.50;;;1.15;;
22429;SDS011;11382;48.086;11.632;2023-03-29T10:34:00;3.50;;;1.35;;
22429;SDS011;11382;48.086;11.632;2023-03-29T10:36:31;1.33;;;0.80;;
22429;SDS011;11382;48.086;11.632;2023-03-29T10:39:01;1.52;;;0.70;;
22429;SDS011;11382;48.086;11.632;2023-03-29T10:41:32;4.57;;;0.90;;
22429;SDS011;11382;48.086;11.632;2023-03-29T10:44:02;3.17;;;0.80;;
22429;SDS011;11382;48.086;11.632;2023-03-29T10:46:31;3.22;;;0.95;;
22429;SDS011;11382;48.086;11.632;2023-03-29T10:49:13;3.13;;;0.93;;
22429;SDS011;11382;48.086;11.632;2023-03-29T10:51:46;1.83;;;0.77;;
22429;SDS011;11382;48.086;11.632;2023-03-29T10:54:16;1.88;;;0.65;;
22429;SDS011;11382;48.086;11.632;2023-03-29T10:56:48;3.63;;;1.08;;
22429;SDS011;11382;48.086;11.632;2023-03-29T11:05:20;2.20;;;0.80;;
22429;SDS011;11382;48.086;11.632;2023-03-29T11:08:10;2.58;;;0.88;;
22429;SDS011;11382;48.086;11.632;2023-03-29T11:10:50;3.50;;;1.30;;
22429;SDS011;11382;48.086;11.632;2023-03-29T11:13:26;2.90;;;1.10;;
22429;SDS011;11382;48.086;11.632;2023-03-29T11:16:03;2.03;;;0.90;;
22429;SDS011;11382;48.086;11.632;2023-03-29T11:18:49;4.57;;;0.90;;
22429;SDS011;11382;48.086;11.632;2023-03-29T11:21:29;3.85;;;1.17;;
22429;SDS011;11382;48.086;11.632;2023-03-29T11:24:13;2.25;;;0.90;;
22429;SDS011;11382;48.086;11.632;2023-03-29T11:27:06;1.75;;;1.00;;
22429;SDS011;11382;48.086;11.632;2023-03-29T11:29:44;1.90;;;0.90;;
22429;SDS011;11382;48.086;11.632;2023-03-29T11:32:25;3.42;;;1.25;;
22429;SDS011;11382;48.086;11.632;2023-03-29T11:35:00;1.98;;;0.93;;
22429;SDS011;11382;48.086;11.632;2023-03-29T11:37:36;1.70;;;0.90;;
22429;SDS011;11382;48.086;11.632;2023-03-29T11:40:20;3.53;;;1.00;;
22429;SDS011;11382;48.086;11.632;2023-03-29T11:42:59;1.83;;;0.90;;
22429;SDS011;11382;48.086;11.632;2023-03-29T11:45:34;2.17;;;0.93;;
22429;SDS011;11382;48.086;11.632;2023-03-29T11:48:06;4.35;;;0.80;;
22429;SDS011;11382;48.086;11.632;2023-03-29T11:50:43;1.77;;;0.93;;
22429;SDS011;11382;48.086;11.632;2023-03-29T11:53:19;3.42;;;1.30;;
22429;SDS011;11382;48.086;11.632;2023-03-29T11:55:53;2.22;;;1.10;;
22429;SDS011;11382;48.086;11.632;2023-03-29T11:58:25;2.30;;;1.10;;
22429;SDS011;11382;48.086;11.632;2023-03-29T12:00:58;2.70;;;1.10;;
22429;SDS011;11382;48.086;11.632;2023-03-29T12:03:33;2.35;;;1.00;;
22429;SDS011;11382;48.086;11.632;2023-03-29T12:06:07;3.38;;;1.17;;
22429;SDS011;11382;48.086;11.632;2023-03-29T12:08:43;3.58;;;1.00;;
22429;SDS011;11382;48.086;11.632;2023-03-29T12:11:21;4.05;;;1.15;;
22429;SDS011;11382;48.086;11.632;2023-03-29T12:13:52;3.83;;;1.13;;
22429;SDS011;11382;48.086;11.632;2023-03-29T12:16:25;1.92;;;0.80;;
22429;SDS011;11382;48.086;11.632;2023-03-29T12:18:58;1.00;;;0.90;;
22429;SDS011;11382;48.086;11.632;2023-03-29T12:24:02;3.45;;;1.05;;
22429;SDS011;11382;48.086;11.632;2023-03-29T12:29:35;3.05;;;1.00;;
22429;SDS011;11382;48.086;11.632;2023-03-29T12:32:20;2.30;;;1.10;;
22429;SDS011;11382;48.086;11.632;2023-03-29T12:35:19;2.73;;;0.90;;
22429;SDS011;11382;48.086;11.632;2023-03-29T12:38:14;2.25;;;0.98;;
22429;SDS011;11382;48.086;11.632;2023-03-29T12:41:08;3.03;;;1.20;;
22429;SDS011;11382;48.086;11.632;2023-03-29T12:44:21;5.68;;;1.13;;
22429;SDS011;11382;48.086;11.632;2023-03-29T12:46:52;2.03;;;1.00;;
22429;SDS011;11382;48.086;11.632;2023-03-29T12:49:25;2.72;;;0.88;;
22429;SDS011;11382;48.086;11.632;2023-03-29T12:51:56;4.30;;;1.30;;
22429;SDS011;11382;48.086;11.632;2023-03-29T12:54:30;2.50;;;0.95;;
22429;SDS011;11382;48.086;11.632;2023-03-29T12:57:00;2.85;;;0.80;;
22429;SDS011;11382;48.086;11.632;2023-03-29T12:59:46;4.72;;;1.30;;
22429;SDS011;11382;48.086;11.632;2023-03-29T13:02:24;3.42;;;1.00;;
22429;SDS011;11382;48.086;11.632;2023-03-29T13:05:01;4.25;;;1.10;;
22429;SDS011;11382;48.086;11.632;2023-03-29T13:07:43;5.95;;;1.20;;
22429;SDS011;11382;48.086;11.632;2023-03-29T13:13:07;1.90;;;1.10;;
22429;SDS011;11382;48.086;11.632;2023-03-29T13:15:42;2.47;;;1.20;;
22429;SDS011;11382;48.086;11.632;2023-03-29T13:18:21;2.88;;;1.10;;
22429;SDS011;11382;48.086;11.632;2023-03-29T13:21:00;4.20;;;1.08;;
22429;SDS011;11382;48.086;11.632;2023-03-29T13:23:40;2.28;;;1.20;;
22429;SDS011;11382;48.086;11.632;2023-03-29T13:26:31;4.18;;;1.00;;
22429;SDS011;11382;48.086;11.632;2023-03-29T13:29:13;3.95;;;0.77;;
22429;SDS011;11382;48.086;11.632;2023-03-29T13:31:54;2.25;;;0.90;;
22429;SDS011;11382;48.086;11.632;2023-03-29T13:34:29;4.07;;;1.55;;
22429;SDS011;11382;48.086;11.632;2023-03-29T13:37:06;1.00;;;0.88;;
22429;SDS011;11382;48.086;11.632;2023-03-29T13:39:47;4.95;;;1.13;;
22429;SDS011;11382;48.086;11.632;2023-03-29T13:42:18;3.80;;;1.33;;
22429;SDS011;11382;48.086;11.632;2023-03-29T13:44:47;1.83;;;1.02;;
22429;SDS011;11382;48.086;11.632;2023-03-29T13:50:34;3.72;;;1.13;;
22429;SDS011;11382;48.086;11.632;2023-03-29T13:55:36;2.95;;;0.95;;
22429;SDS011;11382;48.086;11.632;2023-03-29T13:58:11;2.42;;;0.80;;
22429;SDS011;11382;48.086;11.632;2023-03-29T14:00:43;2.95;;;0.90;;
22429;SDS011;11382;48.086;11.632;2023-03-29T14:03:16;1.85;;;0.68;;
22429;SDS011;11382;48.086;11.632;2023-03-29T14:05:52;3.40;;;0.88;;
22429;SDS011;11382;48.086;11.632;2023-03-29T14:10:53;2.22;;;1.10;;
22429;SDS011;11382;48.086;11.632;2023-03-29T14:13:22;4.35;;;0.90;;
22429;SDS011;11382;48.086;11.632;2023-03-29T14:15:53;2.95;;;1.00;;
22429;SDS011;11382;48.086;11.632;2023-03-29T14:18:27;3.33;;;0.90;;
22429;SDS011;11382;48.086;11.632;2023-03-29T14:21:00;3.30;;;0.80;;
22429;SDS011;11382;48.086;11.632;2023-03-29T14:23:28;4.40;;;1.20;;
22429;SDS011;11382;48.086;11.632;2023-03-29T14:26:08;1.77;;;0.77;;
22429;SDS011;11382;48.086;11.632;2023-03-29T14:28:43;3.25;;;1.00;;
22429;SDS011;11382;48.086;11.632;2023-03-29T14:31:18;3.65;;;0.88;;
22429;SDS011;11382;48.086;11.632;2023-03-29T14:33:51;2.30;;;0.93;;
22429;SDS011;11382;48.086;11.632;2023-03-29T14:36:20;1.33;;;0.75;;
22429;SDS011;11382;48.086;11.632;2023-03-29T14:38:51;2.92;;;0.90;;
22429;SDS011;11382;48.086;11.632;2023-03-29T14:41:23;1.48;;;0.82;;
22429;SDS011;11382;48.086;11.632;2023-03-29T14:43:55;1.95;;;0.90;;
22429;SDS011;11382;48.086;11.632;2023-03-29T14:46:23;4.03;;;0.93;;
22429;SDS011;11382;48.086;11.632;2023-03-29T14:48:53;2.72;;;1.05;;
22429;SDS011;11382;48.086;11.632;2023-03-29T14:51:22;1.15;;;0.70;;
22429;SDS011;11382;48.086;11.632;2023-03-29T14:53:53;2.13;;;1.00;;
22429;SDS011;11382;48.086;11.632;2023-03-29T14:56:23;6.68;;;1.10;;
22429;SDS011;11382;48.086;11.632;2023-03-29T14:58:52;4.07;;;0.82;;
22429;SDS011;11382;48.086;11.632;2023-03-29T15:01:22;7.75;;;1.50;;
22429;SDS011;11382;48.086;11.632;2023-03-29T15:03:54;5.85;;;1.10;;
22429;SDS011;11382;48.086;11.632;2023-03-29T15:06:23;2.92;;;1.10;;
22429;SDS011;11382;48.086;11.632;2023-03-29T15:08:51;3.83;;;1.10;;
22429;SDS011;11382;48.086;11.632;2023-03-29T15:11:31;5.07;;;1.27;;
22429;SDS011;11382;48.086;11.632;2023-03-29T15:14:01;5.40;;;1.10;;
22429;SDS011;11382;48.086;11.632;2023-03-29T15:16:30;3.88;;;1.13;;
22429;SDS011;11382;48.086;11.632;2023-03-29T15:19:00;3.67;;;0.93;;
22429;SDS011;11382;48.086;11.632;2023-03-29T15:21:32;3.22;;;1.05;;
22429;SDS011;11382;48.086;11.632;2023-03-29T15:24:01;2.40;;;1.20;;
22429;SDS011;11382;48.086;11.632;2023-03-29T15:26:31;6.32;;;1.23;;
22429;SDS011;11382;48.086;11.632;2023-03-29T15:29:03;3.65;;;1.10;;
22429;SDS011;11382;48.086;11.632;2023-03-29T15:31:34;2.25;;;1.13;;
22429;SDS011;11382;48.086;11.632;2023-03-29T15:34:05;3.22;;;1.20;;
22429;SDS011;11382;48.086;11.632;2023-03-29T15:36:37;3.08;;;1.30;;
22429;SDS011;11382;48.086;11.632;2023-03-29T15:39:09;3.45;;;1.30;;
22429;SDS011;11382;48.086;11.632;2023-03-29T15:41:38;2.35;;;0.95;;
22429;SDS011;11382;48.086;11.632;2023-03-29T15:44:06;4.65;;;1.33;;
22429;SDS011;11382;48.086;11.632;2023-03-29T15:46:35;2.45;;;1.35;;